sensor_id;sensor_type;location;lat;lon;timestamp;pressure;altitude;pressure_sealevel;temperature;humidity
13800;BME280;6971;50.028;9.258;2023-05-23T00:03:28;99199.38;;;14.04;100.00
13800;BME280;6971;50.028;9.258;2023-05-23T00:08:30;99197.31;;;14.20;100.00
13800;BME280;6971;50.028;9.258;2023-05-23T00:13:30;99198.59;;;14.39;100.00
13800;BME280;6971;50.028;9.258;2023-05-23T00:18:37;99202.50;;;14.46;100.00
13800;BME280;6971;50.028;9.258;2023-05-23T00:23:39;99202.72;;;14.19;100.00
13800;BME280;6971;50.028;9.258;2023-05-23T00:28:42;99204.09;;;14.25;100.00
13800;BME280;6971;50.028;9.258;2023-05-23T00:33:42;99206.78;;;14.12;100.00
13800;BME280;6971;50.028;9.258;2023-05-23T00:38:43;99219.84;;;14.26;100.00
13800;BME280;6971;50.028;9.258;2023-05-23T00:43:44;99218.66;;;14.30;100.00
13800;BME280;6971;50.028;9.258;2023-05-23T00:48:45;99220.09;;;14.23;100.00
13800;BME280;6971;50.028;9.258;2023-05-23T00:53:47;99223.81;;;14.20;100.00
13800;BME280;6971;50.028;9.258;2023-05-23T00:58:48;99222.09;;;14.19;100.00
13800;BME280;6971;50.028;9.258;2023-05-23T01:03:48;99215.38;;;14.02;100.00
13800;BME280;6971;50.028;9.258;2023-05-23T01:08:49;99212.94;;;14.12;100.00
13800;BME280;6971;50.028;9.258;2023-05-23T01:14:04;99234.81;;;14.27;100.00
13800;BME280;6971;50.028;9.258;2023-05-23T01:24:35;99233.88;;;14.15;100.00
13800;BME280;6971;50.028;9.258;2023-05-23T01:29:44;99230.34;;;14.28;100.00
13800;BME280;6971;50.028;9.258;2023-05-23T01:34:46;99234.47;;;14.32;100.00
13800;BME280;6971;50.028;9.258;2023-05-23T01:39:47;99241.06;;;14.26;100.00
13800;BME280;6971;50.028;9.258;2023-05-23T01:44:48;99242.13;;;14.23;100.00
13800;BME280;6971;50.028;9.258;2023-05-23T01:49:49;99245.31;;;14.29;100.00
13800;BME280;6971;50.028;9.258;2023-05-23T01:54:50;99242.59;;;14.17;100.00
13800;BME280;6971;50.028;9.258;2023-05-23T01:59:51;99247.28;;;14.38;100.00
13800;BME280;6971;50.028;9.258;2023-05-23T02:04:52;99240.84;;;14.29;100.00
13800;BME280;6971;50.028;9.258;2023-05-23T02:09:54;99242.66;;;14.29;100.00
13800;BME280;6971;50.028;9.258;2023-05-23T02:14:54;99233.44;;;14.21;100.00
13800;BME280;6971;50.028;9.258;2023-05-23T02:19:55;99243.97;;;14.10;100.00
13800;BME280;6971;50.028;9.258;2023-05-23T02:24:56;99248.88;;;14.03;100.00
13800;BME280;6971;50.028;9.258;2023-05-23T02:29:56;99250.59;;;13.91;100.00
13800;BME280;6971;50.028;9.258;2023-05-23T02:34:57;99255.47;;;13.98;100.00
13800;BME280;6971;50.028;9.258;2023-05-23T02:39:57;99268.25;;;14.04;100.00
13800;BME280;6971;50.028;9.258;2023-05-23T02:44:57;99277.75;;;14.19;100.00
13800;BME280;6971;50.028;9.258;2023-05-23T02:49:57;99281.16;;;14.08;100.00
13800;BME280;6971;50.028;9.258;2023-05-23T02:54:58;99286.47;;;14.21;100.00
13800;BME280;6971;50.028;9.258;2023-05-23T02:59:58;99281.06;;;14.10;100.00
13800;BME280;6971;50.028;9.258;2023-05-23T03:04:58;99276.78;;;13.96;100.00
13800;BME280;6971;50.028;9.258;2023-05-23T03:09:59;99279.41;;;13.83;100.00
13800;BME280;6971;50.028;9.258;2023-05-23T03:15:00;99279.09;;;13.88;100.00
13800;BME280;6971;50.028;9.258;2023-05-23T03:20:00;99272.94;;;13.87;100.00
13800;BME280;6971;50.028;9.258;2023-05-23T03:25:01;99268.91;;;13.94;100.00
13800;BME280;6971;50.028;9.258;2023-05-23T03:30:02;99272.22;;;13.72;100.00
13800;BME280;6971;50.028;9.258;2023-05-23T03:35:03;99277.09;;;13.65;100.00
13800;BME280;6971;50.028;9.258;2023-05-23T03:40:04;99284.94;;;13.54;100.00
13800;BME280;6971;50.028;9.258;2023-05-23T03:45:06;99287.69;;;13.65;100.00
13800;BME280;6971;50.028;9.258;2023-05-23T03:50:07;99288.75;;;13.50;100.00
13800;BME280;6971;50.028;9.258;2023-05-23T03:55:07;99292.44;;;13.47;100.00
13800;BME280;6971;50.028;9.258;2023-05-23T04:00:08;99297.75;;;13.60;100.00
13800;BME280;6971;50.028;9.258;2023-05-23T04:05:12;99316.72;;;13.67;100.00
13800;BME280;6971;50.028;9.258;2023-05-23T04:10:12;99322.22;;;13.64;100.00
13800;BME280;6971;50.028;9.258;2023-05-23T04:15:12;99309.63;;;13.80;100.00
13800;BME280;6971;50.028;9.258;2023-05-23T04:20:13;99316.84;;;13.78;100.00
13800;BME280;6971;50.028;9.258;2023-05-23T04:25:13;99330.25;;;13.88;100.00
13800;BME280;6971;50.028;9.258;2023-05-23T04:30:16;99336.13;;;13.93;100.00
13800;BME280;6971;50.028;9.258;2023-05-23T04:35:17;99335.78;;;13.98;100.00
13800;BME280;6971;50.028;9.258;2023-05-23T04:40:17;99341.34;;;14.19;100.00
13800;BME280;6971;50.028;9.258;2023-05-23T04:45:18;99345.94;;;14.17;100.00
13800;BME280;6971;50.028;9.258;2023-05-23T04:50:21;99352.16;;;14.42;100.00
13800;BME280;6971;50.028;9.258;2023-05-23T04:55:21;99364.44;;;14.43;100.00
13800;BME280;6971;50.028;9.258;2023-05-23T05:00:22;99367.63;;;14.48;100.00
13800;BME280;6971;50.028;9.258;2023-05-23T05:05:22;99361.16;;;14.40;100.00
13800;BME280;6971;50.028;9.258;2023-05-23T05:10:23;99372.50;;;14.42;100.00
13800;BME280;6971;50.028;9.258;2023-05-23T05:15:23;99380.41;;;14.55;100.00
13800;BME280;6971;50.028;9.258;2023-05-23T05:20:25;99387.19;;;14.59;100.00
13800;BME280;6971;50.028;9.258;2023-05-23T05:25:25;99395.25;;;14.57;100.00
13800;BME280;6971;50.028;9.258;2023-05-23T05:30:26;99398.22;;;14.66;100.00
13800;BME280;6971;50.028;9.258;2023-05-23T05:35:26;99404.25;;;14.81;100.00
13800;BME280;6971;50.028;9.258;2023-05-23T05:40:27;99410.63;;;14.91;100.00
13800;BME280;6971;50.028;9.258;2023-05-23T05:45:27;99409.56;;;14.81;100.00
13800;BME280;6971;50.028;9.258;2023-05-23T05:50:27;99422.28;;;14.88;100.00
13800;BME280;6971;50.028;9.258;2023-05-23T05:55:28;99419.91;;;14.97;100.00
13800;BME280;6971;50.028;9.258;2023-05-23T06:00:28;99416.78;;;14.79;100.00
13800;BME280;6971;50.028;9.258;2023-05-23T06:05:29;99431.84;;;14.91;100.00
13800;BME280;6971;50.028;9.258;2023-05-23T06:10:30;99434.41;;;14.80;100.00
13800;BME280;6971;50.028;9.258;2023-05-23T06:15:30;99431.22;;;14.74;100.00
13800;BME280;6971;50.028;9.258;2023-05-23T06:20:31;99440.53;;;14.67;100.00
13800;BME280;6971;50.028;9.258;2023-05-23T06:25:31;99444.41;;;14.50;100.00
13800;BME280;6971;50.028;9.258;2023-05-23T06:30:31;99452.16;;;14.40;100.00
13800;BME280;6971;50.028;9.258;2023-05-23T06:35:33;99446.53;;;14.45;100.00
13800;BME280;6971;50.028;9.258;2023-05-23T06:40:34;99444.50;;;14.48;100.00
13800;BME280;6971;50.028;9.258;2023-05-23T06:45:34;99452.78;;;14.31;100.00
13800;BME280;6971;50.028;9.258;2023-05-23T06:50:37;99467.94;;;14.55;100.00
13800;BME280;6971;50.028;9.258;2023-05-23T06:55:37;99474.72;;;14.59;100.00
13800;BME280;6971;50.028;9.258;2023-05-23T07:00:38;99471.00;;;14.74;100.00
13800;BME280;6971;50.028;9.258;2023-05-23T07:05:38;99474.06;;;14.68;100.00
13800;BME280;6971;50.028;9.258;2023-05-23T07:10:38;99471.63;;;14.91;100.00
13800;BME280;6971;50.028;9.258;2023-05-23T07:15:40;99479.81;;;14.88;100.00
13800;BME280;6971;50.028;9.258;2023-05-23T07:20:40;99471.91;;;14.99;100.00
13800;BME280;6971;50.028;9.258;2023-05-23T07:25:41;99467.09;;;15.18;100.00
13800;BME280;6971;50.028;9.258;2023-05-23T07:30:41;99452.91;;;15.30;100.00
13800;BME280;6971;50.028;9.258;2023-05-23T07:35:43;99459.69;;;15.34;100.00
13800;BME280;6971;50.028;9.258;2023-05-23T07:40:43;99470.50;;;15.44;100.00
13800;BME280;6971;50.028;9.258;2023-05-23T07:45:43;99474.44;;;15.63;100.00
13800;BME280;6971;50.028;9.258;2023-05-23T07:50:44;99478.94;;;16.10;100.00
13800;BME280;6971;50.028;9.258;2023-05-23T07:55:44;99486.91;;;16.10;100.00
13800;BME280;6971;50.028;9.258;2023-05-23T08:00:45;99490.56;;;16.09;100.00
13800;BME280;6971;50.028;9.258;2023-05-23T08:05:47;99481.28;;;15.90;99.83
13800;BME280;6971;50.028;9.258;2023-05-23T08:10:49;99488.63;;;16.11;99.29
13800;BME280;6971;50.028;9.258;2023-05-23T08:15:49;99486.09;;;16.09;96.43
13800;BME280;6971;50.028;9.258;2023-05-23T08:20:49;99489.56;;;15.98;98.64
13800;BME280;6971;50.028;9.258;2023-05-23T08:25:51;99491.47;;;15.96;99.71
13800;BME280;6971;50.028;9.258;2023-05-23T08:30:51;99491.75;;;15.80;99.70
13800;BME280;6971;50.028;9.258;2023-05-23T08:35:53;99492.84;;;15.77;99.55
13800;BME280;6971;50.028;9.258;2023-05-23T08:40:53;99495.38;;;15.79;100.00
13800;BME280;6971;50.028;9.258;2023-05-23T08:45:55;99509.34;;;15.70;100.00
13800;BME280;6971;50.028;9.258;2023-05-23T08:50:57;99500.13;;;15.62;100.00
13800;BME280;6971;50.028;9.258;2023-05-23T08:55:58;99501.13;;;15.73;100.00
13800;BME280;6971;50.028;9.258;2023-05-23T09:01:03;99501.56;;;15.79;100.00
13800;BME280;6971;50.028;9.258;2023-05-23T09:06:08;99515.28;;;15.98;98.57
13800;BME280;6971;50.028;9.258;2023-05-23T09:11:09;99509.84;;;15.75;99.13
13800;BME280;6971;50.028;9.258;2023-05-23T09:16:11;99520.50;;;15.99;98.19
13800;BME280;6971;50.028;9.258;2023-05-23T09:21:12;99518.13;;;16.19;96.81
13800;BME280;6971;50.028;9.258;2023-05-23T09:26:12;99523.53;;;16.88;96.54
13800;BME280;6971;50.028;9.258;2023-05-23T09:31:13;99525.56;;;16.61;94.02
13800;BME280;6971;50.028;9.258;2023-05-23T09:36:15;99520.28;;;16.14;92.98
13800;BME280;6971;50.028;9.258;2023-05-23T09:41:18;99529.44;;;16.10;96.41
13800;BME280;6971;50.028;9.258;2023-05-23T09:46:20;99529.06;;;16.39;94.88
13800;BME280;6971;50.028;9.258;2023-05-23T09:51:22;99531.03;;;16.82;92.15
13800;BME280;6971;50.028;9.258;2023-05-23T09:56:23;99522.94;;;17.07;90.70
13800;BME280;6971;50.028;9.258;2023-05-23T10:01:26;99522.78;;;17.20;89.33
13800;BME280;6971;50.028;9.258;2023-05-23T10:06:43;99525.38;;;17.54;85.96
13800;BME280;6971;50.028;9.258;2023-05-23T10:17:35;99522.03;;;17.29;87.56
13800;BME280;6971;50.028;9.258;2023-05-23T10:22:37;99526.91;;;16.90;88.75
13800;BME280;6971;50.028;9.258;2023-05-23T10:27:38;99526.31;;;16.86;91.65
13800;BME280;6971;50.028;9.258;2023-05-23T10:32:39;99534.41;;;16.73;94.71
13800;BME280;6971;50.028;9.258;2023-05-23T10:48:34;99542.47;;;16.01;99.95
13800;BME280;6971;50.028;9.258;2023-05-23T10:53:37;99544.97;;;16.16;97.68
13800;BME280;6971;50.028;9.258;2023-05-23T10:58:38;99545.56;;;16.20;95.71
13800;BME280;6971;50.028;9.258;2023-05-23T11:08:44;99541.75;;;16.47;91.58
13800;BME280;6971;50.028;9.258;2023-05-23T11:13:53;99547.13;;;16.81;89.80
13800;BME280;6971;50.028;9.258;2023-05-23T11:19:33;99566.50;;;17.17;89.18
13800;BME280;6971;50.028;9.258;2023-05-23T11:25:06;99557.88;;;17.02;88.17
13800;BME280;6971;50.028;9.258;2023-05-23T11:30:07;99565.84;;;16.79;85.99
13800;BME280;6971;50.028;9.258;2023-05-23T11:35:09;99551.63;;;17.15;83.76
13800;BME280;6971;50.028;9.258;2023-05-23T11:40:31;99567.09;;;17.09;84.04
13800;BME280;6971;50.028;9.258;2023-05-23T11:45:33;99569.63;;;17.22;85.03
13800;BME280;6971;50.028;9.258;2023-05-23T11:50:51;99568.53;;;16.91;87.19
13800;BME280;6971;50.028;9.258;2023-05-23T11:55:57;99567.38;;;16.48;89.15
13800;BME280;6971;50.028;9.258;2023-05-23T12:01:08;99569.47;;;16.55;91.30
13800;BME280;6971;50.028;9.258;2023-05-23T12:06:09;99573.06;;;16.43;89.34
13800;BME280;6971;50.028;9.258;2023-05-23T12:11:09;99571.28;;;16.55;88.76
13800;BME280;6971;50.028;9.258;2023-05-23T12:16:12;99578.09;;;16.70;92.22
13800;BME280;6971;50.028;9.258;2023-05-23T12:21:14;99583.75;;;16.66;86.90
13800;BME280;6971;50.028;9.258;2023-05-23T12:26:15;99588.22;;;16.77;86.07
13800;BME280;6971;50.028;9.258;2023-05-23T12:31:17;99589.47;;;16.95;82.97
13800;BME280;6971;50.028;9.258;2023-05-23T12:36:23;99588.66;;;17.18;81.04
13800;BME280;6971;50.028;9.258;2023-05-23T12:41:24;99600.00;;;17.54;80.85
13800;BME280;6971;50.028;9.258;2023-05-23T12:46:26;99592.75;;;17.11;80.69
13800;BME280;6971;50.028;9.258;2023-05-23T12:51:26;99601.22;;;17.27;81.60
13800;BME280;6971;50.028;9.258;2023-05-23T12:56:27;99592.53;;;17.14;79.92
13800;BME280;6971;50.028;9.258;2023-05-23T13:01:27;99597.03;;;17.69;77.58
13800;BME280;6971;50.028;9.258;2023-05-23T13:06:27;99582.41;;;17.96;75.87
13800;BME280;6971;50.028;9.258;2023-05-23T13:11:28;99578.69;;;17.43;77.18
13800;BME280;6971;50.028;9.258;2023-05-23T13:16:30;99575.72;;;17.69;77.14
13800;BME280;6971;50.028;9.258;2023-05-23T13:21:31;99585.91;;;17.75;76.21
13800;BME280;6971;50.028;9.258;2023-05-23T13:26:31;99586.59;;;17.77;77.02
13800;BME280;6971;50.028;9.258;2023-05-23T13:31:32;99591.66;;;17.47;75.80
13800;BME280;6971;50.028;9.258;2023-05-23T13:36:32;99584.06;;;17.75;74.61
13800;BME280;6971;50.028;9.258;2023-05-23T13:41:34;99579.69;;;17.30;74.62
13800;BME280;6971;50.028;9.258;2023-05-23T13:46:35;99580.28;;;17.22;75.52
13800;BME280;6971;50.028;9.258;2023-05-23T13:51:35;99593.97;;;17.18;76.17
13800;BME280;6971;50.028;9.258;2023-05-23T13:56:36;99595.63;;;17.42;76.15
13800;BME280;6971;50.028;9.258;2023-05-23T14:01:41;99596.34;;;17.67;77.01
13800;BME280;6971;50.028;9.258;2023-05-23T14:06:41;99584.69;;;17.68;75.73
13800;BME280;6971;50.028;9.258;2023-05-23T14:11:41;99591.91;;;17.88;74.16
13800;BME280;6971;50.028;9.258;2023-05-23T14:16:42;99592.56;;;17.69;74.01
13800;BME280;6971;50.028;9.258;2023-05-23T14:21:42;99582.88;;;17.68;72.86
13800;BME280;6971;50.028;9.258;2023-05-23T14:26:43;99595.13;;;17.71;73.65
13800;BME280;6971;50.028;9.258;2023-05-23T14:31:43;99596.34;;;17.55;73.94
13800;BME280;6971;50.028;9.258;2023-05-23T14:36:43;99596.34;;;17.67;74.53
13800;BME280;6971;50.028;9.258;2023-05-23T14:41:43;99605.38;;;17.75;74.09
13800;BME280;6971;50.028;9.258;2023-05-23T14:46:45;99603.56;;;17.76;74.14
13800;BME280;6971;50.028;9.258;2023-05-23T14:51:49;99602.91;;;17.40;73.12
13800;BME280;6971;50.028;9.258;2023-05-23T14:56:49;99614.06;;;17.45;74.57
13800;BME280;6971;50.028;9.258;2023-05-23T15:01:50;99613.28;;;16.74;76.22
13800;BME280;6971;50.028;9.258;2023-05-23T15:06:50;99618.81;;;16.71;76.81
13800;BME280;6971;50.028;9.258;2023-05-23T15:11:51;99621.22;;;16.63;78.55
13800;BME280;6971;50.028;9.258;2023-05-23T15:16:51;99618.28;;;16.54;78.00
13800;BME280;6971;50.028;9.258;2023-05-23T15:21:52;99612.75;;;16.46;78.04
13800;BME280;6971;50.028;9.258;2023-05-23T15:26:52;99616.63;;;16.17;78.61
13800;BME280;6971;50.028;9.258;2023-05-23T15:31:52;99617.91;;;16.36;78.41
13800;BME280;6971;50.028;9.258;2023-05-23T15:36:53;99615.34;;;16.35;78.21
13800;BME280;6971;50.028;9.258;2023-05-23T15:41:55;99618.47;;;16.28;78.60
13800;BME280;6971;50.028;9.258;2023-05-23T15:46:55;99614.53;;;16.46;77.71
13800;BME280;6971;50.028;9.258;2023-05-23T15:51:55;99625.88;;;16.83;76.21
13800;BME280;6971;50.028;9.258;2023-05-23T15:56:56;99625.69;;;17.32;74.15
13800;BME280;6971;50.028;9.258;2023-05-23T16:01:56;99632.81;;;17.32;73.54
13800;BME280;6971;50.028;9.258;2023-05-23T16:06:57;99621.97;;;16.76;74.73
13800;BME280;6971;50.028;9.258;2023-05-23T16:11:57;99627.22;;;16.89;74.08
13800;BME280;6971;50.028;9.258;2023-05-23T16:16:57;99618.09;;;16.80;74.44
13800;BME280;6971;50.028;9.258;2023-05-23T16:22:00;99630.16;;;16.26;75.72
13800;BME280;6971;50.028;9.258;2023-05-23T16:27:01;99621.63;;;15.85;77.59
13800;BME280;6971;50.028;9.258;2023-05-23T16:32:02;99621.84;;;15.82;76.94
13800;BME280;6971;50.028;9.258;2023-05-23T16:37:03;99626.94;;;15.85;77.08
13800;BME280;6971;50.028;9.258;2023-05-23T16:42:03;99617.25;;;15.84;77.87
13800;BME280;6971;50.028;9.258;2023-05-23T16:47:04;99623.31;;;15.86;78.18
13800;BME280;6971;50.028;9.258;2023-05-23T16:52:04;99619.19;;;15.82;78.91
13800;BME280;6971;50.028;9.258;2023-05-23T16:57:05;99637.03;;;15.42;79.80
13800;BME280;6971;50.028;9.258;2023-05-23T17:02:07;99635.31;;;15.54;79.43
13800;BME280;6971;50.028;9.258;2023-05-23T17:07:09;99639.06;;;15.25;79.18
13800;BME280;6971;50.028;9.258;2023-05-23T17:12:09;99642.81;;;15.23;79.84
13800;BME280;6971;50.028;9.258;2023-05-23T17:17:11;99649.63;;;15.14;78.12
13800;BME280;6971;50.028;9.258;2023-05-23T17:22:11;99651.69;;;15.35;77.95
13800;BME280;6971;50.028;9.258;2023-05-23T17:27:12;99647.25;;;15.09;78.27
13800;BME280;6971;50.028;9.258;2023-05-23T17:32:12;99650.78;;;15.10;77.93
13800;BME280;6971;50.028;9.258;2023-05-23T17:37:13;99656.63;;;15.02;76.64
13800;BME280;6971;50.028;9.258;2023-05-23T17:42:14;99654.91;;;14.88;74.91
13800;BME280;6971;50.028;9.258;2023-05-23T17:47:14;99655.47;;;14.66;75.47
13800;BME280;6971;50.028;9.258;2023-05-23T17:52:15;99658.66;;;14.45;75.82
13800;BME280;6971;50.028;9.258;2023-05-23T17:57:15;99672.38;;;14.24;76.31
13800;BME280;6971;50.028;9.258;2023-05-23T18:02:16;99667.50;;;14.31;76.28
13800;BME280;6971;50.028;9.258;2023-05-23T18:07:16;99685.22;;;14.03;75.64
13800;BME280;6971;50.028;9.258;2023-05-23T18:12:19;99692.25;;;13.75;76.41
13800;BME280;6971;50.028;9.258;2023-05-23T18:17:20;99709.28;;;13.70;76.03
13800;BME280;6971;50.028;9.258;2023-05-23T18:22:20;99708.84;;;13.49;75.06
13800;BME280;6971;50.028;9.258;2023-05-23T18:27:21;99709.94;;;13.16;74.30
13800;BME280;6971;50.028;9.258;2023-05-23T18:32:21;99717.59;;;13.21;74.18
13800;BME280;6971;50.028;9.258;2023-05-23T18:37:21;99722.13;;;13.18;74.35
13800;BME280;6971;50.028;9.258;2023-05-23T18:42:22;99722.00;;;12.60;78.27
13800;BME280;6971;50.028;9.258;2023-05-23T18:47:22;99728.94;;;12.47;78.76
13800;BME280;6971;50.028;9.258;2023-05-23T18:52:23;99731.97;;;11.91;83.79
13800;BME280;6971;50.028;9.258;2023-05-23T18:57:23;99734.53;;;11.76;83.02
13800;BME280;6971;50.028;9.258;2023-05-23T19:02:24;99733.66;;;11.75;85.75
13800;BME280;6971;50.028;9.258;2023-05-23T19:07:25;99744.53;;;11.35;88.57
13800;BME280;6971;50.028;9.258;2023-05-23T19:12:26;99747.97;;;11.38;87.46
13800;BME280;6971;50.028;9.258;2023-05-23T19:17:26;99760.00;;;11.26;91.36
13800;BME280;6971;50.028;9.258;2023-05-23T19:22:27;99763.66;;;10.88;96.08
13800;BME280;6971;50.028;9.258;2023-05-23T19:27:27;99775.91;;;10.71;95.37
13800;BME280;6971;50.028;9.258;2023-05-23T19:32:27;99778.19;;;10.60;99.25
13800;BME280;6971;50.028;9.258;2023-05-23T19:37:27;99772.84;;;10.61;98.78
13800;BME280;6971;50.028;9.258;2023-05-23T19:42:28;99784.06;;;10.28;100.00
13800;BME280;6971;50.028;9.258;2023-05-23T19:47:28;99789.19;;;10.12;100.00
13800;BME280;6971;50.028;9.258;2023-05-23T19:52:28;99789.44;;;9.86;100.00
13800;BME280;6971;50.028;9.258;2023-05-23T19:57:30;99788.94;;;9.59;100.00
13800;BME280;6971;50.028;9.258;2023-05-23T20:02:31;99787.81;;;9.44;100.00
13800;BME280;6971;50.028;9.258;2023-05-23T20:07:31;99793.59;;;9.31;100.00
13800;BME280;6971;50.028;9.258;2023-05-23T20:12:31;99793.34;;;9.17;100.00
13800;BME280;6971;50.028;9.258;2023-05-23T20:17:33;99794.78;;;9.03;100.00
13800;BME280;6971;50.028;9.258;2023-05-23T20:22:34;99804.00;;;8.91;100.00
13800;BME280;6971;50.028;9.258;2023-05-23T20:27:34;99803.72;;;8.77;100.00
13800;BME280;6971;50.028;9.258;2023-05-23T20:32:35;99805.75;;;8.70;100.00
13800;BME280;6971;50.028;9.258;2023-05-23T20:37:35;99806.28;;;8.56;100.00
13800;BME280;6971;50.028;9.258;2023-05-23T20:42:35;99807.78;;;8.63;100.00
13800;BME280;6971;50.028;9.258;2023-05-23T20:47:36;99814.50;;;8.46;100.00
13800;BME280;6971;50.028;9.258;2023-05-23T20:52:40;99824.34;;;8.41;100.00
13800;BME280;6971;50.028;9.258;2023-05-23T20:57:41;99812.25;;;8.37;100.00
13800;BME280;6971;50.028;9.258;2023-05-23T21:02:42;99815.56;;;8.18;100.00
13800;BME280;6971;50.028;9.258;2023-05-23T21:07:42;99816.03;;;8.30;100.00
13800;BME280;6971;50.028;9.258;2023-05-23T21:12:43;99816.16;;;8.27;100.00
13800;BME280;6971;50.028;9.258;2023-05-23T21:17:49;99816.38;;;8.20;100.00
13800;BME280;6971;50.028;9.258;2023-05-23T21:22:52;99816.38;;;8.20;100.00
13800;BME280;6971;50.028;9.258;2023-05-23T21:27:52;99827.38;;;8.30;100.00
13800;BME280;6971;50.028;9.258;2023-05-23T21:32:52;99831.03;;;8.26;100.00
13800;BME280;6971;50.028;9.258;2023-05-23T21:37:53;99836.06;;;8.32;100.00
13800;BME280;6971;50.028;9.258;2023-05-23T21:42:53;99840.28;;;8.36;100.00
13800;BME280;6971;50.028;9.258;2023-05-23T21:47:53;99847.31;;;8.36;100.00
13800;BME280;6971;50.028;9.258;2023-05-23T21:52:54;99847.06;;;8.42;100.00
13800;BME280;6971;50.028;9.258;2023-05-23T21:57:56;99855.25;;;8.34;100.00
13800;BME280;6971;50.028;9.258;2023-05-23T22:02:56;99866.16;;;8.47;100.00
13800;BME280;6971;50.028;9.258;2023-05-23T22:07:56;99864.78;;;8.61;100.00
13800;BME280;6971;50.028;9.258;2023-05-23T22:12:57;99871.97;;;8.56;100.00
13800;BME280;6971;50.028;9.258;2023-05-23T22:17:58;99875.56;;;8.53;100.00
13800;BME280;6971;50.028;9.258;2023-05-23T22:22:58;99867.94;;;8.69;100.00
13800;BME280;6971;50.028;9.258;2023-05-23T22:28:01;99876.34;;;8.57;100.00
13800;BME280;6971;50.028;9.258;2023-05-23T22:33:01;99874.75;;;8.53;100.00
13800;BME280;6971;50.028;9.258;2023-05-23T22:38:01;99869.09;;;8.38;100.00
13800;BME280;6971;50.028;9.258;2023-05-23T22:43:06;99865.00;;;8.31;100.00
13800;BME280;6971;50.028;9.258;2023-05-23T22:48:06;99866.47;;;8.38;100.00
13800;BME280;6971;50.028;9.258;2023-05-23T22:53:10;99865.00;;;8.31;100.00
13800;BME280;6971;50.028;9.258;2023-05-23T22:58:11;99866.19;;;8.22;100.00
13800;BME280;6971;50.028;9.258;2023-05-23T23:03:12;99872.59;;;8.15;100.00
13800;BME280;6971;50.028;9.258;2023-05-23T23:08:14;99871.97;;;8.32;100.00
13800;BME280;6971;50.028;9.258;2023-05-23T23:13:15;99867.13;;;8.21;100.00
13800;BME280;6971;50.028;9.258;2023-05-23T23:18:15;99857.19;;;8.05;100.00
13800;BME280;6971;50.028;9.258;2023-05-23T23:23:15;99867.28;;;7.92;100.00
13800;BME280;6971;50.028;9.258;2023-05-23T23:28:16;99873.53;;;7.88;100.00
13800;BME280;6971;50.028;9.258;2023-05-23T23:33:16;99862.44;;;7.80;100.00
13800;BME280;6971;50.028;9.258;2023-05-23T23:38:17;99861.44;;;7.84;100.00
13800;BME280;6971;50.028;9.258;2023-05-23T23:43:17;99860.91;;;7.74;100.00
13800;BME280;6971;50.028;9.258;2023-05-23T23:48:18;99862.00;;;7.68;100.00
13800;BME280;6971;50.028;9.258;2023-05-23T23:53:18;99860.50;;;7.61;100.00
13800;BME280;6971;50.028;9.258;2023-05-23T23:58:23;99857.06;;;7.59;100.00
